Terminal Aerodrome Forecast
Issued by NWS Wilmington, OH

Home | Current Version | Previous Version | Text Only | Print | Product List | Glossary On
Versions: 1 2 3 4 5 6 7 8 9 10 11 12 13 14 15 16 17 18 19 20 21 22 23 24 25
000
FTUS41 KILN 281300 AAA
TAFCMH
TAF AMD
KCMH 281345Z 2814/2912 VRB02KT 5SM BR SKC
     FM281500 VRB02KT P6SM SKC
     FM281700 16004KT P6SM SCT250
     FM290000 13006KT P6SM OVC200=

USA.gov is the U.S. government's official web portal to all federal, state and local government web resources and services.